sensor_id;sensor_type;location;lat;lon;timestamp;P1;durP1;ratioP1;P2;durP2;ratioP2
21513;SDS011;10918;48.102;11.636;2023-07-22T00:00:06;5.13;;;2.80;;
21513;SDS011;10918;48.102;11.636;2023-07-22T00:02:36;5.03;;;3.00;;
21513;SDS011;10918;48.102;11.636;2023-07-22T00:05:03;3.15;;;2.78;;
21513;SDS011;10918;48.102;11.636;2023-07-22T00:07:29;4.50;;;3.13;;
21513;SDS011;10918;48.102;11.636;2023-07-22T00:09:55;4.05;;;2.90;;
21513;SDS011;10918;48.102;11.636;2023-07-22T00:12:21;5.07;;;2.70;;
21513;SDS011;10918;48.102;11.636;2023-07-22T00:14:50;4.25;;;2.72;;
21513;SDS011;10918;48.102;11.636;2023-07-22T00:17:16;5.47;;;3.33;;
21513;SDS011;10918;48.102;11.636;2023-07-22T00:19:42;3.45;;;2.70;;
21513;SDS011;10918;48.102;11.636;2023-07-22T00:22:09;5.07;;;3.13;;
21513;SDS011;10918;48.102;11.636;2023-07-22T00:24:36;5.45;;;2.80;;
21513;SDS011;10918;48.102;11.636;2023-07-22T00:27:02;4.53;;;3.03;;
21513;SDS011;10918;48.102;11.636;2023-07-22T00:29:28;3.90;;;2.80;;
21513;SDS011;10918;48.102;11.636;2023-07-22T00:31:54;4.60;;;2.92;;
21513;SDS011;10918;48.102;11.636;2023-07-22T00:34:20;5.32;;;2.83;;
21513;SDS011;10918;48.102;11.636;2023-07-22T00:36:48;5.35;;;2.55;;
21513;SDS011;10918;48.102;11.636;2023-07-22T00:39:14;3.50;;;2.67;;
21513;SDS011;10918;48.102;11.636;2023-07-22T00:41:40;4.25;;;2.70;;
21513;SDS011;10918;48.102;11.636;2023-07-22T00:44:09;3.22;;;2.90;;
21513;SDS011;10918;48.102;11.636;2023-07-22T00:46:35;3.95;;;2.70;;
21513;SDS011;10918;48.102;11.636;2023-07-22T00:49:01;4.30;;;3.03;;
21513;SDS011;10918;48.102;11.636;2023-07-22T00:51:27;3.42;;;2.90;;
21513;SDS011;10918;48.102;11.636;2023-07-22T00:53:53;4.90;;;3.05;;
21513;SDS011;10918;48.102;11.636;2023-07-22T00:56:19;3.90;;;3.10;;
21513;SDS011;10918;48.102;11.636;2023-07-22T00:58:45;3.53;;;2.88;;
21513;SDS011;10918;48.102;11.636;2023-07-22T01:01:11;4.22;;;3.03;;
21513;SDS011;10918;48.102;11.636;2023-07-22T01:03:37;6.13;;;3.00;;
21513;SDS011;10918;48.102;11.636;2023-07-22T01:06:03;3.72;;;3.05;;
21513;SDS011;10918;48.102;11.636;2023-07-22T01:08:30;3.97;;;3.08;;
21513;SDS011;10918;48.102;11.636;2023-07-22T01:10:56;4.85;;;2.80;;
21513;SDS011;10918;48.102;11.636;2023-07-22T01:13:22;5.22;;;2.95;;
21513;SDS011;10918;48.102;11.636;2023-07-22T01:15:48;3.95;;;3.05;;
21513;SDS011;10918;48.102;11.636;2023-07-22T01:18:14;5.93;;;2.97;;
21513;SDS011;10918;48.102;11.636;2023-07-22T01:20:40;4.80;;;3.25;;
21513;SDS011;10918;48.102;11.636;2023-07-22T01:23:06;4.70;;;2.85;;
21513;SDS011;10918;48.102;11.636;2023-07-22T01:25:32;3.85;;;2.63;;
21513;SDS011;10918;48.102;11.636;2023-07-22T01:27:58;7.30;;;3.28;;
21513;SDS011;10918;48.102;11.636;2023-07-22T01:30:24;4.47;;;3.00;;
21513;SDS011;10918;48.102;11.636;2023-07-22T01:32:52;5.07;;;3.00;;
21513;SDS011;10918;48.102;11.636;2023-07-22T01:35:18;4.28;;;3.05;;
21513;SDS011;10918;48.102;11.636;2023-07-22T01:37:44;4.28;;;3.20;;
21513;SDS011;10918;48.102;11.636;2023-07-22T01:40:11;7.47;;;3.75;;
21513;SDS011;10918;48.102;11.636;2023-07-22T01:42:40;6.00;;;3.28;;
21513;SDS011;10918;48.102;11.636;2023-07-22T01:45:07;3.53;;;2.95;;
21513;SDS011;10918;48.102;11.636;2023-07-22T01:47:34;6.50;;;2.92;;
21513;SDS011;10918;48.102;11.636;2023-07-22T01:50:00;3.38;;;2.75;;
21513;SDS011;10918;48.102;11.636;2023-07-22T01:52:26;4.38;;;3.08;;
21513;SDS011;10918;48.102;11.636;2023-07-22T01:54:52;3.38;;;3.08;;
21513;SDS011;10918;48.102;11.636;2023-07-22T01:57:18;6.40;;;3.05;;
21513;SDS011;10918;48.102;11.636;2023-07-22T01:59:44;7.03;;;3.45;;
21513;SDS011;10918;48.102;11.636;2023-07-22T02:02:10;4.82;;;3.20;;
21513;SDS011;10918;48.102;11.636;2023-07-22T02:04:36;4.95;;;3.00;;
21513;SDS011;10918;48.102;11.636;2023-07-22T02:07:02;4.97;;;3.38;;
21513;SDS011;10918;48.102;11.636;2023-07-22T02:09:28;4.90;;;3.03;;
21513;SDS011;10918;48.102;11.636;2023-07-22T02:11:54;3.80;;;3.05;;
21513;SDS011;10918;48.102;11.636;2023-07-22T02:14:20;4.80;;;3.17;;
21513;SDS011;10918;48.102;11.636;2023-07-22T02:16:46;4.95;;;3.20;;
21513;SDS011;10918;48.102;11.636;2023-07-22T02:19:12;3.40;;;3.10;;
21513;SDS011;10918;48.102;11.636;2023-07-22T02:21:38;5.00;;;2.80;;
21513;SDS011;10918;48.102;11.636;2023-07-22T02:24:04;3.70;;;3.13;;
21513;SDS011;10918;48.102;11.636;2023-07-22T02:26:30;3.08;;;2.70;;
21513;SDS011;10918;48.102;11.636;2023-07-22T02:28:56;4.13;;;2.78;;
21513;SDS011;10918;48.102;11.636;2023-07-22T02:31:22;4.55;;;3.20;;
21513;SDS011;10918;48.102;11.636;2023-07-22T02:33:48;5.35;;;3.20;;
21513;SDS011;10918;48.102;11.636;2023-07-22T02:36:14;4.38;;;3.03;;
21513;SDS011;10918;48.102;11.636;2023-07-22T02:38:40;4.85;;;3.13;;
21513;SDS011;10918;48.102;11.636;2023-07-22T02:41:06;4.18;;;3.30;;
21513;SDS011;10918;48.102;11.636;2023-07-22T02:43:35;5.22;;;3.20;;
21513;SDS011;10918;48.102;11.636;2023-07-22T02:46:02;3.63;;;3.20;;
21513;SDS011;10918;48.102;11.636;2023-07-22T02:48:29;3.53;;;3.10;;
21513;SDS011;10918;48.102;11.636;2023-07-22T02:51:01;4.35;;;3.60;;
21513;SDS011;10918;48.102;11.636;2023-07-22T02:53:27;5.32;;;3.20;;
21513;SDS011;10918;48.102;11.636;2023-07-22T02:55:53;4.35;;;2.95;;
21513;SDS011;10918;48.102;11.636;2023-07-22T02:58:19;3.63;;;3.20;;
21513;SDS011;10918;48.102;11.636;2023-07-22T03:00:46;3.90;;;2.97;;
21513;SDS011;10918;48.102;11.636;2023-07-22T03:03:12;4.78;;;3.00;;
21513;SDS011;10918;48.102;11.636;2023-07-22T03:05:38;5.53;;;3.25;;
21513;SDS011;10918;48.102;11.636;2023-07-22T03:08:04;3.88;;;3.15;;
21513;SDS011;10918;48.102;11.636;2023-07-22T03:10:32;4.32;;;3.30;;
21513;SDS011;10918;48.102;11.636;2023-07-22T03:12:58;4.85;;;3.20;;
21513;SDS011;10918;48.102;11.636;2023-07-22T03:15:24;4.75;;;3.05;;
21513;SDS011;10918;48.102;11.636;2023-07-22T03:17:54;4.38;;;3.45;;
21513;SDS011;10918;48.102;11.636;2023-07-22T03:20:26;6.30;;;3.53;;
21513;SDS011;10918;48.102;11.636;2023-07-22T03:22:52;5.60;;;3.35;;
21513;SDS011;10918;48.102;11.636;2023-07-22T03:25:19;4.80;;;2.92;;
21513;SDS011;10918;48.102;11.636;2023-07-22T03:27:45;4.10;;;2.92;;
21513;SDS011;10918;48.102;11.636;2023-07-22T03:30:13;3.65;;;3.10;;
21513;SDS011;10918;48.102;11.636;2023-07-22T03:32:42;3.80;;;3.15;;
21513;SDS011;10918;48.102;11.636;2023-07-22T03:35:09;4.60;;;3.22;;
21513;SDS011;10918;48.102;11.636;2023-07-22T03:37:38;4.68;;;3.10;;
21513;SDS011;10918;48.102;11.636;2023-07-22T03:40:04;3.97;;;3.35;;
21513;SDS011;10918;48.102;11.636;2023-07-22T03:42:45;3.88;;;2.75;;
21513;SDS011;10918;48.102;11.636;2023-07-22T03:45:11;5.78;;;3.05;;
21513;SDS011;10918;48.102;11.636;2023-07-22T03:47:38;3.65;;;3.35;;
21513;SDS011;10918;48.102;11.636;2023-07-22T03:50:04;3.50;;;2.85;;
21513;SDS011;10918;48.102;11.636;2023-07-22T03:52:31;4.80;;;3.20;;
21513;SDS011;10918;48.102;11.636;2023-07-22T03:54:57;3.40;;;3.00;;
21513;SDS011;10918;48.102;11.636;2023-07-22T03:57:26;3.80;;;3.08;;
21513;SDS011;10918;48.102;11.636;2023-07-22T03:59:53;3.90;;;3.05;;
21513;SDS011;10918;48.102;11.636;2023-07-22T04:02:19;3.10;;;2.80;;
21513;SDS011;10918;48.102;11.636;2023-07-22T04:04:45;4.28;;;3.30;;
21513;SDS011;10918;48.102;11.636;2023-07-22T04:07:11;3.97;;;3.10;;
21513;SDS011;10918;48.102;11.636;2023-07-22T04:09:37;5.53;;;3.28;;
21513;SDS011;10918;48.102;11.636;2023-07-22T04:12:03;4.90;;;3.13;;
21513;SDS011;10918;48.102;11.636;2023-07-22T04:14:29;3.38;;;2.90;;
21513;SDS011;10918;48.102;11.636;2023-07-22T04:16:55;4.32;;;3.00;;
21513;SDS011;10918;48.102;11.636;2023-07-22T04:19:22;3.88;;;3.00;;
21513;SDS011;10918;48.102;11.636;2023-07-22T04:21:48;7.05;;;3.35;;
21513;SDS011;10918;48.102;11.636;2023-07-22T04:24:14;5.75;;;3.15;;
21513;SDS011;10918;48.102;11.636;2023-07-22T04:26:41;7.28;;;3.80;;
21513;SDS011;10918;48.102;11.636;2023-07-22T04:29:07;3.60;;;3.20;;
21513;SDS011;10918;48.102;11.636;2023-07-22T04:31:34;4.55;;;3.40;;
21513;SDS011;10918;48.102;11.636;2023-07-22T04:34:00;5.10;;;3.83;;
21513;SDS011;10918;48.102;11.636;2023-07-22T04:36:26;4.53;;;3.38;;
21513;SDS011;10918;48.102;11.636;2023-07-22T04:38:52;4.05;;;2.92;;
21513;SDS011;10918;48.102;11.636;2023-07-22T04:41:18;4.93;;;3.42;;
21513;SDS011;10918;48.102;11.636;2023-07-22T04:43:44;4.65;;;3.22;;
21513;SDS011;10918;48.102;11.636;2023-07-22T04:46:10;3.15;;;2.80;;
21513;SDS011;10918;48.102;11.636;2023-07-22T04:48:36;3.78;;;3.35;;
21513;SDS011;10918;48.102;11.636;2023-07-22T04:51:02;5.47;;;4.30;;
21513;SDS011;10918;48.102;11.636;2023-07-22T04:53:28;5.63;;;3.60;;
21513;SDS011;10918;48.102;11.636;2023-07-22T04:55:54;4.97;;;3.72;;
21513;SDS011;10918;48.102;11.636;2023-07-22T04:58:20;3.78;;;3.38;;
21513;SDS011;10918;48.102;11.636;2023-07-22T05:00:46;4.05;;;3.65;;
21513;SDS011;10918;48.102;11.636;2023-07-22T05:03:13;4.10;;;3.70;;
21513;SDS011;10918;48.102;11.636;2023-07-22T05:05:39;4.18;;;3.40;;
21513;SDS011;10918;48.102;11.636;2023-07-22T05:08:05;4.20;;;3.58;;
21513;SDS011;10918;48.102;11.636;2023-07-22T05:10:33;4.95;;;3.42;;
21513;SDS011;10918;48.102;11.636;2023-07-22T05:12:59;4.90;;;3.50;;
21513;SDS011;10918;48.102;11.636;2023-07-22T05:15:25;4.47;;;3.40;;
21513;SDS011;10918;48.102;11.636;2023-07-22T05:17:51;3.97;;;3.22;;
21513;SDS011;10918;48.102;11.636;2023-07-22T05:20:17;3.53;;;3.20;;
21513;SDS011;10918;48.102;11.636;2023-07-22T05:22:43;5.15;;;3.80;;
21513;SDS011;10918;48.102;11.636;2023-07-22T05:25:09;6.00;;;4.63;;
21513;SDS011;10918;48.102;11.636;2023-07-22T05:27:35;5.55;;;3.80;;
21513;SDS011;10918;48.102;11.636;2023-07-22T05:30:01;5.43;;;3.63;;
21513;SDS011;10918;48.102;11.636;2023-07-22T05:32:28;4.13;;;3.63;;
21513;SDS011;10918;48.102;11.636;2023-07-22T05:34:54;5.30;;;3.40;;
21513;SDS011;10918;48.102;11.636;2023-07-22T05:37:21;4.30;;;3.25;;
21513;SDS011;10918;48.102;11.636;2023-07-22T05:39:47;3.72;;;3.30;;
21513;SDS011;10918;48.102;11.636;2023-07-22T05:42:13;5.63;;;3.45;;
21513;SDS011;10918;48.102;11.636;2023-07-22T05:44:39;3.63;;;3.05;;
21513;SDS011;10918;48.102;11.636;2023-07-22T05:47:05;4.85;;;2.97;;
21513;SDS011;10918;48.102;11.636;2023-07-22T05:49:31;5.28;;;2.80;;
21513;SDS011;10918;48.102;11.636;2023-07-22T05:51:57;4.78;;;3.42;;
21513;SDS011;10918;48.102;11.636;2023-07-22T05:54:23;5.05;;;3.45;;
21513;SDS011;10918;48.102;11.636;2023-07-22T05:56:49;5.22;;;3.67;;
21513;SDS011;10918;48.102;11.636;2023-07-22T05:59:15;3.53;;;3.00;;
21513;SDS011;10918;48.102;11.636;2023-07-22T06:01:41;4.55;;;3.55;;
21513;SDS011;10918;48.102;11.636;2023-07-22T06:04:07;6.90;;;4.00;;
21513;SDS011;10918;48.102;11.636;2023-07-22T06:06:33;4.22;;;3.10;;
21513;SDS011;10918;48.102;11.636;2023-07-22T06:08:59;4.78;;;2.90;;
21513;SDS011;10918;48.102;11.636;2023-07-22T06:11:25;3.50;;;2.65;;
21513;SDS011;10918;48.102;11.636;2023-07-22T06:13:51;5.13;;;3.90;;
21513;SDS011;10918;48.102;11.636;2023-07-22T06:16:17;7.75;;;3.30;;
21513;SDS011;10918;48.102;11.636;2023-07-22T06:18:43;3.70;;;2.97;;
21513;SDS011;10918;48.102;11.636;2023-07-22T06:21:09;3.83;;;3.10;;
21513;SDS011;10918;48.102;11.636;2023-07-22T06:23:35;5.32;;;3.25;;
21513;SDS011;10918;48.102;11.636;2023-07-22T06:26:02;4.20;;;2.70;;
21513;SDS011;10918;48.102;11.636;2023-07-22T06:28:28;6.32;;;4.13;;
21513;SDS011;10918;48.102;11.636;2023-07-22T06:30:54;4.72;;;2.85;;
21513;SDS011;10918;48.102;11.636;2023-07-22T06:33:20;4.85;;;2.70;;
21513;SDS011;10918;48.102;11.636;2023-07-22T06:35:46;4.10;;;3.10;;
21513;SDS011;10918;48.102;11.636;2023-07-22T06:38:12;4.80;;;2.40;;
21513;SDS011;10918;48.102;11.636;2023-07-22T06:40:38;5.47;;;4.43;;
21513;SDS011;10918;48.102;11.636;2023-07-22T06:43:04;2.85;;;2.53;;
21513;SDS011;10918;48.102;11.636;2023-07-22T06:45:31;3.40;;;2.20;;
21513;SDS011;10918;48.102;11.636;2023-07-22T06:47:57;2.47;;;2.13;;
21513;SDS011;10918;48.102;11.636;2023-07-22T06:50:23;3.33;;;2.67;;
21513;SDS011;10918;48.102;11.636;2023-07-22T06:52:49;4.75;;;2.22;;
21513;SDS011;10918;48.102;11.636;2023-07-22T06:55:15;3.28;;;2.00;;
21513;SDS011;10918;48.102;11.636;2023-07-22T06:57:41;5.35;;;1.98;;
21513;SDS011;10918;48.102;11.636;2023-07-22T07:00:08;3.60;;;2.30;;
21513;SDS011;10918;48.102;11.636;2023-07-22T07:02:35;4.47;;;2.00;;
21513;SDS011;10918;48.102;11.636;2023-07-22T07:05:01;1.85;;;1.63;;
21513;SDS011;10918;48.102;11.636;2023-07-22T07:07:27;2.85;;;2.15;;
21513;SDS011;10918;48.102;11.636;2023-07-22T07:09:53;2.53;;;1.75;;
21513;SDS011;10918;48.102;11.636;2023-07-22T07:12:19;2.20;;;2.00;;
21513;SDS011;10918;48.102;11.636;2023-07-22T07:14:45;2.10;;;1.60;;
21513;SDS011;10918;48.102;11.636;2023-07-22T07:17:11;2.58;;;1.52;;
21513;SDS011;10918;48.102;11.636;2023-07-22T07:19:37;2.65;;;1.90;;
21513;SDS011;10918;48.102;11.636;2023-07-22T07:22:03;2.38;;;1.63;;
21513;SDS011;10918;48.102;11.636;2023-07-22T07:24:29;2.58;;;1.70;;
21513;SDS011;10918;48.102;11.636;2023-07-22T07:26:55;3.40;;;1.80;;
21513;SDS011;10918;48.102;11.636;2023-07-22T07:29:21;3.13;;;1.60;;
21513;SDS011;10918;48.102;11.636;2023-07-22T07:31:47;1.85;;;1.55;;
21513;SDS011;10918;48.102;11.636;2023-07-22T07:34:12;2.15;;;1.63;;
21513;SDS011;10918;48.102;11.636;2023-07-22T07:36:38;2.58;;;1.50;;
21513;SDS011;10918;48.102;11.636;2023-07-22T07:39:04;2.67;;;1.98;;
21513;SDS011;10918;48.102;11.636;2023-07-22T07:41:30;3.20;;;1.70;;
21513;SDS011;10918;48.102;11.636;2023-07-22T07:43:56;2.63;;;1.58;;
21513;SDS011;10918;48.102;11.636;2023-07-22T07:46:29;3.22;;;1.75;;
21513;SDS011;10918;48.102;11.636;2023-07-22T07:48:55;6.68;;;2.08;;
21513;SDS011;10918;48.102;11.636;2023-07-22T07:51:22;2.10;;;1.70;;
21513;SDS011;10918;48.102;11.636;2023-07-22T07:53:49;2.30;;;1.77;;
21513;SDS011;10918;48.102;11.636;2023-07-22T07:56:16;3.25;;;1.75;;
21513;SDS011;10918;48.102;11.636;2023-07-22T07:58:42;2.50;;;1.63;;
21513;SDS011;10918;48.102;11.636;2023-07-22T08:01:08;2.08;;;1.58;;
21513;SDS011;10918;48.102;11.636;2023-07-22T08:03:35;2.30;;;1.65;;
21513;SDS011;10918;48.102;11.636;2023-07-22T08:06:01;2.42;;;1.40;;
21513;SDS011;10918;48.102;11.636;2023-07-22T08:08:27;2.42;;;1.77;;
21513;SDS011;10918;48.102;11.636;2023-07-22T08:13:28;2.28;;;2.00;;
21513;SDS011;10918;48.102;11.636;2023-07-22T08:15:56;2.83;;;2.13;;
21513;SDS011;10918;48.102;11.636;2023-07-22T08:18:22;4.10;;;1.45;;
21513;SDS011;10918;48.102;11.636;2023-07-22T08:20:49;2.05;;;1.58;;
21513;SDS011;10918;48.102;11.636;2023-07-22T08:23:15;2.60;;;1.80;;
21513;SDS011;10918;48.102;11.636;2023-07-22T08:25:41;1.58;;;1.27;;
21513;SDS011;10918;48.102;11.636;2023-07-22T08:28:07;1.75;;;1.23;;
21513;SDS011;10918;48.102;11.636;2023-07-22T08:30:33;2.65;;;1.60;;
21513;SDS011;10918;48.102;11.636;2023-07-22T08:32:59;3.45;;;1.45;;
21513;SDS011;10918;48.102;11.636;2023-07-22T08:35:25;3.65;;;3.30;;
21513;SDS011;10918;48.102;11.636;2023-07-22T08:37:51;3.25;;;1.60;;
21513;SDS011;10918;48.102;11.636;2023-07-22T08:40:18;2.70;;;1.75;;
21513;SDS011;10918;48.102;11.636;2023-07-22T08:42:44;2.17;;;1.55;;
21513;SDS011;10918;48.102;11.636;2023-07-22T08:45:11;2.20;;;1.42;;
21513;SDS011;10918;48.102;11.636;2023-07-22T08:47:58;2.40;;;1.48;;
21513;SDS011;10918;48.102;11.636;2023-07-22T08:50:23;4.15;;;1.58;;
21513;SDS011;10918;48.102;11.636;2023-07-22T08:52:52;1.83;;;1.38;;
21513;SDS011;10918;48.102;11.636;2023-07-22T08:55:18;2.85;;;1.83;;
21513;SDS011;10918;48.102;11.636;2023-07-22T08:57:44;2.85;;;2.50;;
21513;SDS011;10918;48.102;11.636;2023-07-22T09:00:10;2.95;;;1.50;;
21513;SDS011;10918;48.102;11.636;2023-07-22T09:02:37;2.92;;;2.50;;
21513;SDS011;10918;48.102;11.636;2023-07-22T09:05:05;2.25;;;1.90;;
21513;SDS011;10918;48.102;11.636;2023-07-22T09:07:31;2.38;;;1.75;;
21513;SDS011;10918;48.102;11.636;2023-07-22T09:09:57;2.78;;;1.52;;
21513;SDS011;10918;48.102;11.636;2023-07-22T09:12:23;2.95;;;1.50;;
21513;SDS011;10918;48.102;11.636;2023-07-22T09:14:50;2.70;;;1.55;;
21513;SDS011;10918;48.102;11.636;2023-07-22T09:17:16;2.00;;;1.38;;
21513;SDS011;10918;48.102;11.636;2023-07-22T09:19:42;1.88;;;1.40;;
21513;SDS011;10918;48.102;11.636;2023-07-22T09:22:08;5.35;;;3.47;;
21513;SDS011;10918;48.102;11.636;2023-07-22T09:24:34;1.40;;;1.30;;
21513;SDS011;10918;48.102;11.636;2023-07-22T09:27:00;3.00;;;1.48;;
21513;SDS011;10918;48.102;11.636;2023-07-22T09:29:38;2.00;;;1.50;;
21513;SDS011;10918;48.102;11.636;2023-07-22T09:32:05;1.25;;;1.15;;
21513;SDS011;10918;48.102;11.636;2023-07-22T09:34:31;1.90;;;1.40;;
21513;SDS011;10918;48.102;11.636;2023-07-22T09:36:58;1.98;;;1.63;;
21513;SDS011;10918;48.102;11.636;2023-07-22T09:39:28;1.58;;;1.20;;
21513;SDS011;10918;48.102;11.636;2023-07-22T09:41:55;1.85;;;1.48;;
21513;SDS011;10918;48.102;11.636;2023-07-22T09:44:29;1.75;;;1.50;;
21513;SDS011;10918;48.102;11.636;2023-07-22T09:46:55;1.35;;;1.25;;
21513;SDS011;10918;48.102;11.636;2023-07-22T09:49:21;2.22;;;1.17;;
21513;SDS011;10918;48.102;11.636;2023-07-22T09:51:47;2.75;;;1.23;;
21513;SDS011;10918;48.102;11.636;2023-07-22T09:54:17;2.35;;;1.20;;
21513;SDS011;10918;48.102;11.636;2023-07-22T09:56:46;1.42;;;1.10;;
21513;SDS011;10918;48.102;11.636;2023-07-22T09:59:12;1.77;;;1.10;;
21513;SDS011;10918;48.102;11.636;2023-07-22T10:01:39;1.73;;;1.30;;
21513;SDS011;10918;48.102;11.636;2023-07-22T10:04:06;2.15;;;1.20;;
21513;SDS011;10918;48.102;11.636;2023-07-22T10:06:32;1.40;;;1.30;;
21513;SDS011;10918;48.102;11.636;2023-07-22T10:09:03;3.22;;;2.35;;
21513;SDS011;10918;48.102;11.636;2023-07-22T10:11:33;1.60;;;1.27;;
21513;SDS011;10918;48.102;11.636;2023-07-22T10:13:59;1.85;;;1.30;;
21513;SDS011;10918;48.102;11.636;2023-07-22T10:16:25;1.55;;;1.40;;
21513;SDS011;10918;48.102;11.636;2023-07-22T10:18:51;1.42;;;1.30;;
21513;SDS011;10918;48.102;11.636;2023-07-22T10:21:19;4.70;;;1.65;;
21513;SDS011;10918;48.102;11.636;2023-07-22T10:23:46;1.30;;;1.20;;
21513;SDS011;10918;48.102;11.636;2023-07-22T10:26:13;1.40;;;1.30;;
21513;SDS011;10918;48.102;11.636;2023-07-22T10:28:41;1.80;;;1.20;;
21513;SDS011;10918;48.102;11.636;2023-07-22T10:31:07;2.85;;;1.33;;
21513;SDS011;10918;48.102;11.636;2023-07-22T10:33:34;1.30;;;1.20;;
21513;SDS011;10918;48.102;11.636;2023-07-22T10:38:29;1.63;;;1.35;;
21513;SDS011;10918;48.102;11.636;2023-07-22T10:40:55;1.73;;;1.30;;
21513;SDS011;10918;48.102;11.636;2023-07-22T10:43:25;1.52;;;1.10;;
21513;SDS011;10918;48.102;11.636;2023-07-22T10:45:52;1.73;;;1.50;;
21513;SDS011;10918;48.102;11.636;2023-07-22T10:48:19;2.20;;;1.40;;
21513;SDS011;10918;48.102;11.636;2023-07-22T10:50:46;1.35;;;1.25;;
21513;SDS011;10918;48.102;11.636;2023-07-22T10:53:14;1.95;;;1.23;;
21513;SDS011;10918;48.102;11.636;2023-07-22T10:58:30;2.00;;;1.35;;
21513;SDS011;10918;48.102;11.636;2023-07-22T11:01:15;1.30;;;1.20;;
21513;SDS011;10918;48.102;11.636;2023-07-22T11:11:52;2.00;;;1.40;;
21513;SDS011;10918;48.102;11.636;2023-07-22T11:14:22;1.75;;;1.50;;
21513;SDS011;10918;48.102;11.636;2023-07-22T11:16:49;1.77;;;1.40;;
21513;SDS011;10918;48.102;11.636;2023-07-22T11:19:15;1.90;;;1.48;;
21513;SDS011;10918;48.102;11.636;2023-07-22T11:21:42;1.17;;;1.08;;
21513;SDS011;10918;48.102;11.636;2023-07-22T11:24:08;1.65;;;1.55;;
21513;SDS011;10918;48.102;11.636;2023-07-22T11:26:34;1.60;;;1.50;;
21513;SDS011;10918;48.102;11.636;2023-07-22T11:29:01;1.38;;;1.20;;
21513;SDS011;10918;48.102;11.636;2023-07-22T11:31:46;2.08;;;1.40;;
21513;SDS011;10918;48.102;11.636;2023-07-22T11:34:13;2.90;;;1.60;;
21513;SDS011;10918;48.102;11.636;2023-07-22T11:36:39;3.47;;;3.17;;
21513;SDS011;10918;48.102;11.636;2023-07-22T11:39:06;2.35;;;1.75;;
21513;SDS011;10918;48.102;11.636;2023-07-22T11:41:33;2.08;;;1.70;;
21513;SDS011;10918;48.102;11.636;2023-07-22T11:44:00;3.70;;;1.40;;
21513;SDS011;10918;48.102;11.636;2023-07-22T11:46:29;2.08;;;1.77;;
21513;SDS011;10918;48.102;11.636;2023-07-22T11:48:55;2.17;;;1.45;;
21513;SDS011;10918;48.102;11.636;2023-07-22T11:51:22;1.75;;;1.50;;
21513;SDS011;10918;48.102;11.636;2023-07-22T11:53:52;2.35;;;1.45;;
21513;SDS011;10918;48.102;11.636;2023-07-22T11:56:20;1.73;;;1.50;;
21513;SDS011;10918;48.102;11.636;2023-07-22T11:58:50;2.05;;;1.40;;
21513;SDS011;10918;48.102;11.636;2023-07-22T12:01:16;6.50;;;1.60;;
21513;SDS011;10918;48.102;11.636;2023-07-22T12:03:42;2.33;;;1.50;;
21513;SDS011;10918;48.102;11.636;2023-07-22T12:06:08;2.28;;;1.80;;
21513;SDS011;10918;48.102;11.636;2023-07-22T12:08:34;5.32;;;4.63;;
21513;SDS011;10918;48.102;11.636;2023-07-22T12:11:03;2.35;;;1.38;;
21513;SDS011;10918;48.102;11.636;2023-07-22T12:13:35;1.77;;;1.65;;
21513;SDS011;10918;48.102;11.636;2023-07-22T12:16:05;1.98;;;1.60;;
21513;SDS011;10918;48.102;11.636;2023-07-22T12:18:44;1.92;;;1.50;;
21513;SDS011;10918;48.102;11.636;2023-07-22T12:21:10;2.92;;;1.50;;
21513;SDS011;10918;48.102;11.636;2023-07-22T12:23:36;2.17;;;1.70;;
21513;SDS011;10918;48.102;11.636;2023-07-22T12:26:03;1.92;;;1.58;;
21513;SDS011;10918;48.102;11.636;2023-07-22T12:28:29;1.70;;;1.55;;
21513;SDS011;10918;48.102;11.636;2023-07-22T12:30:55;3.80;;;2.58;;
21513;SDS011;10918;48.102;11.636;2023-07-22T12:33:24;2.28;;;2.08;;
21513;SDS011;10918;48.102;11.636;2023-07-22T12:35:50;2.38;;;1.50;;
21513;SDS011;10918;48.102;11.636;2023-07-22T12:38:16;2.63;;;1.50;;
21513;SDS011;10918;48.102;11.636;2023-07-22T12:40:42;2.15;;;1.60;;
21513;SDS011;10918;48.102;11.636;2023-07-22T12:43:08;2.45;;;1.52;;
21513;SDS011;10918;48.102;11.636;2023-07-22T12:45:35;2.45;;;1.48;;
21513;SDS011;10918;48.102;11.636;2023-07-22T12:48:01;2.47;;;1.40;;
21513;SDS011;10918;48.102;11.636;2023-07-22T12:50:29;1.98;;;1.40;;
21513;SDS011;10918;48.102;11.636;2023-07-22T12:52:55;1.77;;;1.67;;
21513;SDS011;10918;48.102;11.636;2023-07-22T12:55:21;3.22;;;1.73;;
21513;SDS011;10918;48.102;11.636;2023-07-22T12:57:47;4.70;;;1.63;;
21513;SDS011;10918;48.102;11.636;2023-07-22T13:00:13;3.22;;;1.50;;
21513;SDS011;10918;48.102;11.636;2023-07-22T13:02:39;3.35;;;1.35;;
21513;SDS011;10918;48.102;11.636;2023-07-22T13:05:05;1.48;;;1.30;;
21513;SDS011;10918;48.102;11.636;2023-07-22T13:07:32;2.08;;;1.73;;
21513;SDS011;10918;48.102;11.636;2023-07-22T13:09:58;2.10;;;1.70;;
21513;SDS011;10918;48.102;11.636;2023-07-22T13:12:27;1.90;;;1.70;;
21513;SDS011;10918;48.102;11.636;2023-07-22T13:14:53;1.80;;;1.50;;
21513;SDS011;10918;48.102;11.636;2023-07-22T13:17:19;4.38;;;1.70;;
21513;SDS011;10918;48.102;11.636;2023-07-22T13:19:45;1.60;;;1.50;;
21513;SDS011;10918;48.102;11.636;2023-07-22T13:22:11;2.58;;;1.38;;
21513;SDS011;10918;48.102;11.636;2023-07-22T13:24:38;2.75;;;1.63;;
21513;SDS011;10918;48.102;11.636;2023-07-22T13:27:04;2.13;;;1.50;;
21513;SDS011;10918;48.102;11.636;2023-07-22T13:29:30;1.80;;;1.33;;
21513;SDS011;10918;48.102;11.636;2023-07-22T13:31:56;3.03;;;2.08;;
21513;SDS011;10918;48.102;11.636;2023-07-22T13:34:22;1.50;;;1.40;;
21513;SDS011;10918;48.102;11.636;2023-07-22T13:36:48;1.92;;;1.38;;
21513;SDS011;10918;48.102;11.636;2023-07-22T13:39:14;2.05;;;1.80;;
21513;SDS011;10918;48.102;11.636;2023-07-22T13:41:40;3.83;;;2.53;;
21513;SDS011;10918;48.102;11.636;2023-07-22T13:44:07;2.00;;;1.80;;
21513;SDS011;10918;48.102;11.636;2023-07-22T13:46:32;1.67;;;1.50;;
21513;SDS011;10918;48.102;11.636;2023-07-22T13:48:58;2.63;;;1.50;;
21513;SDS011;10918;48.102;11.636;2023-07-22T13:51:24;1.60;;;1.38;;
21513;SDS011;10918;48.102;11.636;2023-07-22T13:53:50;1.40;;;1.30;;
21513;SDS011;10918;48.102;11.636;2023-07-22T13:56:20;2.03;;;1.50;;
21513;SDS011;10918;48.102;11.636;2023-07-22T13:58:46;2.17;;;1.50;;
21513;SDS011;10918;48.102;11.636;2023-07-22T14:01:12;2.17;;;1.70;;
21513;SDS011;10918;48.102;11.636;2023-07-22T14:03:38;3.33;;;1.67;;
21513;SDS011;10918;48.102;11.636;2023-07-22T14:06:04;2.92;;;2.70;;
21513;SDS011;10918;48.102;11.636;2023-07-22T14:08:31;2.95;;;2.25;;
21513;SDS011;10918;48.102;11.636;2023-07-22T14:10:58;2.55;;;2.35;;
21513;SDS011;10918;48.102;11.636;2023-07-22T14:13:24;2.35;;;1.60;;
21513;SDS011;10918;48.102;11.636;2023-07-22T14:15:50;1.98;;;1.52;;
21513;SDS011;10918;48.102;11.636;2023-07-22T14:18:16;2.20;;;1.40;;
21513;SDS011;10918;48.102;11.636;2023-07-22T14:20:43;2.90;;;1.70;;
21513;SDS011;10918;48.102;11.636;2023-07-22T14:23:10;1.58;;;1.48;;
21513;SDS011;10918;48.102;11.636;2023-07-22T14:25:36;2.63;;;2.00;;
21513;SDS011;10918;48.102;11.636;2023-07-22T14:28:02;1.52;;;1.42;;
21513;SDS011;10918;48.102;11.636;2023-07-22T14:30:28;1.45;;;1.35;;
21513;SDS011;10918;48.102;11.636;2023-07-22T14:32:54;1.73;;;1.38;;
21513;SDS011;10918;48.102;11.636;2023-07-22T14:35:20;1.98;;;1.67;;
21513;SDS011;10918;48.102;11.636;2023-07-22T14:37:46;1.63;;;1.52;;
21513;SDS011;10918;48.102;11.636;2023-07-22T14:40:12;1.98;;;1.77;;
21513;SDS011;10918;48.102;11.636;2023-07-22T14:42:38;3.65;;;1.83;;
21513;SDS011;10918;48.102;11.636;2023-07-22T14:45:05;1.83;;;1.70;;